createdAt,value
2019-04-29T00:00:04.988Z,6.90
2019-04-29T00:01:05.078Z,6.90
2019-04-29T00:02:06.859Z,6.80
2019-04-29T00:03:09.953Z,6.80
2019-04-29T00:04:04.353Z,6.80
2019-04-29T00:05:04.837Z,6.80
2019-04-29T00:06:05.079Z,6.80
2019-04-29T00:07:05.126Z,6.80
2019-04-29T00:08:05.057Z,6.80
2019-04-29T00:09:06.800Z,6.80
2019-04-29T00:10:04.730Z,6.80
2019-04-29T00:11:04.954Z,6.70
2019-04-29T00:12:04.392Z,6.70
2019-04-29T00:13:04.585Z,6.70
2019-04-29T00:14:04.595Z,6.70
2019-04-29T00:15:04.997Z,6.70
2019-04-29T00:16:05.191Z,6.60
2019-04-29T00:17:04.826Z,6.60
2019-04-29T00:18:06.888Z,6.60
2019-04-29T00:19:04.474Z,6.60
2019-04-29T00:20:04.823Z,6.60
2019-04-29T00:21:04.338Z,6.50
2019-04-29T00:22:05.121Z,6.50
2019-04-29T00:23:04.718Z,6.50
2019-04-29T00:24:04.448Z,6.50
2019-04-29T00:25:04.485Z,6.40
2019-04-29T00:26:04.733Z,6.40
2019-04-29T00:27:04.949Z,6.40
2019-04-29T00:28:05.040Z,6.40
2019-04-29T00:29:04.290Z,6.40
2019-04-29T00:30:04.291Z,6.40
2019-04-29T00:31:04.554Z,6.40
2019-04-29T00:32:04.930Z,6.40
2019-04-29T00:33:05.286Z,6.40
2019-04-29T00:34:05.025Z,6.40
2019-04-29T00:35:05.157Z,6.40
2019-04-29T00:36:04.298Z,6.40
2019-04-29T00:37:04.280Z,6.40
2019-04-29T00:38:04.954Z,6.40
2019-04-29T00:39:04.470Z,6.40
2019-04-29T00:40:04.959Z,6.40
2019-04-29T00:41:05.060Z,6.30
2019-04-29T00:42:04.487Z,6.30
2019-04-29T00:43:09.866Z,6.30
2019-04-29T00:44:04.441Z,6.30
2019-04-29T00:45:04.763Z,6.30
2019-04-29T00:46:04.951Z,6.30
2019-04-29T00:47:05.131Z,6.20
2019-04-29T00:48:04.290Z,6.30
2019-04-29T00:49:07.970Z,6.20
2019-04-29T00:50:04.662Z,6.20
2019-04-29T00:51:05.050Z,6.20
2019-04-29T00:52:05.104Z,6.20
2019-04-29T00:53:04.840Z,6.20
2019-04-29T00:54:04.528Z,6.20
2019-04-29T00:55:04.995Z,6.20
2019-04-29T00:56:05.031Z,6.20
2019-04-29T00:57:05.108Z,6.20
2019-04-29T00:58:04.567Z,6.20
2019-04-29T00:59:04.804Z,6.20
2019-04-29T01:00:05.305Z,6.20
2019-04-29T01:01:04.328Z,6.20
2019-04-29T01:02:05.155Z,6.20
2019-04-29T01:03:09.969Z,6.20
2019-04-29T01:04:04.473Z,6.20
2019-04-29T01:05:04.620Z,6.20
2019-04-29T01:06:04.962Z,6.20
2019-04-29T01:07:04.303Z,6.20
2019-04-29T01:08:04.897Z,6.20
2019-04-29T01:09:05.217Z,6.20
2019-04-29T01:10:04.350Z,6.20
2019-04-29T01:11:04.471Z,6.20
2019-04-29T01:12:05.017Z,6.20
2019-04-29T01:13:04.475Z,6.20
2019-04-29T01:14:04.423Z,6.20
2019-04-29T01:15:04.559Z,6.20
2019-04-29T01:16:04.748Z,6.20
2019-04-29T01:17:04.611Z,6.20
2019-04-29T01:18:04.615Z,6.20
2019-04-29T01:19:04.797Z,6.20
2019-04-29T01:20:04.911Z,6.20
2019-04-29T01:21:04.371Z,6.20
2019-04-29T01:22:04.464Z,6.20
2019-04-29T01:23:04.983Z,6.20
2019-04-29T01:24:04.606Z,6.20
2019-04-29T01:25:05.048Z,6.10
2019-04-29T01:26:04.963Z,6.20
2019-04-29T01:27:05.181Z,6.10
2019-04-29T01:28:04.812Z,6.20
2019-04-29T01:29:04.876Z,6.20
2019-04-29T01:30:04.377Z,6.10
2019-04-29T01:31:04.532Z,6.10
2019-04-29T01:32:04.782Z,6.10
2019-04-29T01:33:04.905Z,6.10
2019-04-29T01:34:05.083Z,6.10
2019-04-29T01:35:06.150Z,6.10
2019-04-29T01:36:04.728Z,6.10
2019-04-29T01:37:05.337Z,6.10
2019-04-29T01:38:04.796Z,6.10
2019-04-29T01:39:05.152Z,6.10
2019-04-29T01:40:04.331Z,6.10
2019-04-29T01:41:04.699Z,6.10
2019-04-29T01:42:04.657Z,6.10
2019-04-29T01:43:09.808Z,6.10
2019-04-29T01:44:04.369Z,6.10
2019-04-29T01:45:04.711Z,6.10
2019-04-29T01:46:04.347Z,6.10
2019-04-29T01:47:04.453Z,6.10
2019-04-29T01:48:04.569Z,6.10
2019-04-29T01:49:04.887Z,6.10
2019-04-29T01:50:04.367Z,6.10
2019-04-29T01:51:04.589Z,6.10
2019-04-29T01:52:04.556Z,6.10
2019-04-29T01:53:04.953Z,6.10
2019-04-29T01:54:04.886Z,6.10
2019-04-29T01:55:04.899Z,6.10
2019-04-29T01:56:04.392Z,6.10
2019-04-29T01:57:04.531Z,6.10
2019-04-29T01:58:05.034Z,6.10
2019-04-29T01:59:04.482Z,6.10
2019-04-29T02:00:04.985Z,6.10
2019-04-29T02:01:05.203Z,6.10
2019-04-29T02:02:04.369Z,6.10
2019-04-29T02:03:04.433Z,6.10
2019-04-29T02:04:04.782Z,6.10
2019-04-29T02:05:05.106Z,6.10
2019-04-29T02:06:04.405Z,6.10
2019-04-29T02:07:04.747Z,6.10
2019-04-29T02:08:04.890Z,6.10
2019-04-29T02:09:05.038Z,6.10
2019-04-29T02:10:04.882Z,6.10
2019-04-29T02:11:04.425Z,6.10
2019-04-29T02:12:04.889Z,6.10
2019-04-29T02:13:05.130Z,6.10
2019-04-29T02:14:05.090Z,6.10
2019-04-29T02:15:04.598Z,6.10
2019-04-29T02:16:04.435Z,6.10
2019-04-29T02:17:04.590Z,6.10
2019-04-29T02:18:04.903Z,6.10
2019-04-29T02:19:05.098Z,6.10
2019-04-29T02:20:05.023Z,6.10
2019-04-29T02:21:05.244Z,6.10
2019-04-29T02:22:06.813Z,6.10
2019-04-29T02:23:04.714Z,6.10
2019-04-29T02:24:04.842Z,6.10
2019-04-29T02:25:04.389Z,6.10
2019-04-29T02:26:05.147Z,6.10
2019-04-29T02:27:05.757Z,6.10
2019-04-29T02:28:04.557Z,6.10
2019-04-29T02:29:05.042Z,6.10
2019-04-29T02:30:05.088Z,6.10
2019-04-29T02:31:05.203Z,6.10
2019-04-29T02:32:05.013Z,6.10
2019-04-29T02:33:04.793Z,6.10
2019-04-29T02:34:04.755Z,6.10
2019-04-29T02:35:05.037Z,6.10
2019-04-29T02:36:05.107Z,6.10
2019-04-29T02:37:04.450Z,6.20
2019-04-29T02:38:06.398Z,6.10
2019-04-29T02:39:05.092Z,6.20
2019-04-29T02:40:04.397Z,6.10
2019-04-29T02:41:04.515Z,6.10
2019-04-29T02:42:04.786Z,6.20
2019-04-29T02:43:04.848Z,6.20
2019-04-29T02:44:04.900Z,6.10
2019-04-29T02:45:04.534Z,6.20
2019-04-29T02:46:04.683Z,6.10
2019-04-29T02:47:05.129Z,6.20
2019-04-29T02:48:04.953Z,6.20
2019-04-29T02:49:04.959Z,6.10
2019-04-29T02:50:05.007Z,6.10
2019-04-29T02:51:04.886Z,6.10
2019-04-29T02:52:05.259Z,6.10
2019-04-29T02:53:04.715Z,6.10
2019-04-29T02:54:07.392Z,6.10
2019-04-29T02:55:05.009Z,6.20
2019-04-29T02:56:04.399Z,6.10
2019-04-29T02:57:09.974Z,6.20
2019-04-29T02:58:04.460Z,6.20
2019-04-29T02:59:04.681Z,6.10
2019-04-29T03:00:04.849Z,6.20
2019-04-29T03:01:04.688Z,6.20
2019-04-29T03:02:04.715Z,6.20
2019-04-29T03:03:05.149Z,6.20
2019-04-29T03:04:04.562Z,6.20
2019-04-29T03:05:04.421Z,6.20
2019-04-29T03:06:05.119Z,6.20
2019-04-29T03:07:04.704Z,6.20
2019-04-29T03:08:04.876Z,6.10
2019-04-29T03:09:04.754Z,6.10
2019-04-29T03:10:06.375Z,6.20
2019-04-29T03:11:04.470Z,6.20
2019-04-29T03:12:05.038Z,6.10
2019-04-29T03:13:05.315Z,6.10
2019-04-29T03:14:04.736Z,6.10
2019-04-29T03:15:04.428Z,6.10
2019-04-29T03:16:04.549Z,6.10
2019-04-29T03:17:05.302Z,6.10
2019-04-29T03:18:05.120Z,6.10
2019-04-29T03:19:04.443Z,6.10
2019-04-29T03:20:04.668Z,6.10
2019-04-29T03:21:05.227Z,6.10
2019-04-29T03:22:04.447Z,6.10
2019-04-29T03:23:04.456Z,6.10
2019-04-29T03:24:05.194Z,6.10
2019-04-29T03:25:04.699Z,6.10
2019-04-29T03:26:06.689Z,6.10
2019-04-29T03:27:04.423Z,6.10
2019-04-29T03:28:04.991Z,6.10
2019-04-29T03:29:04.713Z,6.10
2019-04-29T03:30:04.642Z,6.10
2019-04-29T03:31:05.203Z,6.10
2019-04-29T03:32:04.719Z,6.10
2019-04-29T03:33:04.850Z,6.10
2019-04-29T03:34:05.083Z,6.10
2019-04-29T03:35:04.455Z,6.10
2019-04-29T03:36:04.710Z,6.10
2019-04-29T03:37:04.766Z,6.10
2019-04-29T03:38:04.498Z,6.10
2019-04-29T03:39:05.131Z,6.10
2019-04-29T03:40:04.813Z,6.00
2019-04-29T03:41:04.579Z,6.10
2019-04-29T03:42:07.173Z,6.00
2019-04-29T03:43:10.253Z,6.00
2019-04-29T03:44:04.680Z,6.00
2019-04-29T03:45:04.821Z,6.00
2019-04-29T03:46:05.126Z,6.00
2019-04-29T03:47:04.464Z,6.00
2019-04-29T03:48:04.512Z,6.00
2019-04-29T03:49:05.155Z,6.00
2019-04-29T03:50:04.444Z,6.00
2019-04-29T03:51:04.985Z,6.00
2019-04-29T03:52:04.711Z,6.00
2019-04-29T03:53:04.465Z,6.00
2019-04-29T03:54:04.593Z,6.00
2019-04-29T03:55:04.777Z,6.00
2019-04-29T03:56:04.613Z,6.00
2019-04-29T03:57:04.514Z,6.00
2019-04-29T03:58:04.777Z,6.00
2019-04-29T03:59:05.243Z,6.00
2019-04-29T04:00:04.489Z,6.00
2019-04-29T04:01:04.602Z,6.00
2019-04-29T04:02:06.205Z,6.00
2019-04-29T04:03:05.242Z,6.00
2019-04-29T04:04:04.477Z,6.00
2019-04-29T04:05:10.639Z,6.00
2019-04-29T04:06:04.471Z,6.00
2019-04-29T04:07:05.316Z,6.00
2019-04-29T04:08:05.302Z,6.00
2019-04-29T04:09:05.778Z,6.00
2019-04-29T04:10:04.479Z,6.00
2019-04-29T04:11:04.602Z,6.00
2019-04-29T04:12:04.881Z,6.00
2019-04-29T04:13:04.579Z,6.00
2019-04-29T04:14:04.460Z,6.00
2019-04-29T04:15:05.042Z,6.00
2019-04-29T04:16:05.157Z,6.00
2019-04-29T04:17:04.591Z,6.00
2019-04-29T04:18:04.955Z,6.00
2019-04-29T04:19:05.105Z,6.10
2019-04-29T04:20:04.679Z,6.00
2019-04-29T04:21:04.898Z,6.10
2019-04-29T04:22:04.483Z,6.10
2019-04-29T04:23:04.602Z,6.10
2019-04-29T04:24:04.499Z,6.10
2019-04-29T04:25:05.817Z,6.10
2019-04-29T04:26:04.575Z,6.10
2019-04-29T04:27:05.073Z,6.10
2019-04-29T04:28:05.372Z,6.10
2019-04-29T04:29:04.810Z,6.10
2019-04-29T04:30:04.781Z,6.10
2019-04-29T04:31:06.830Z,6.10
2019-04-29T04:32:05.030Z,6.10
2019-04-29T04:33:04.801Z,6.10
2019-04-29T04:34:04.809Z,6.10
2019-04-29T04:35:05.010Z,6.10
2019-04-29T04:36:04.985Z,6.10
2019-04-29T04:37:05.559Z,6.10
2019-04-29T04:38:04.581Z,6.10
2019-04-29T04:39:05.087Z,6.10
2019-04-29T04:40:04.986Z,6.10
2019-04-29T04:41:04.691Z,6.10
2019-04-29T04:42:05.289Z,6.10
2019-04-29T04:43:04.814Z,6.10
2019-04-29T04:44:05.064Z,6.20
2019-04-29T04:45:05.492Z,6.20
2019-04-29T04:46:04.973Z,6.20
2019-04-29T04:47:04.549Z,6.20
2019-04-29T04:48:04.587Z,6.20
2019-04-29T04:49:04.768Z,6.20
2019-04-29T04:50:04.834Z,6.20
2019-04-29T04:51:04.662Z,6.20
2019-04-29T04:52:05.142Z,6.20
2019-04-29T04:53:04.786Z,6.30
2019-04-29T04:54:05.879Z,6.30
2019-04-29T04:55:05.172Z,6.30
2019-04-29T04:56:04.730Z,6.30
2019-04-29T04:57:04.542Z,6.30
2019-04-29T04:58:04.660Z,6.30
2019-04-29T04:59:04.524Z,6.30
2019-04-29T05:00:04.771Z,6.40
2019-04-29T05:01:04.866Z,6.40
2019-04-29T05:02:04.668Z,6.40
2019-04-29T05:03:09.766Z,6.40
2019-04-29T05:04:04.576Z,6.40
2019-04-29T05:05:04.650Z,6.40
2019-04-29T05:06:04.911Z,6.40
2019-04-29T05:07:04.547Z,6.40
2019-04-29T05:08:04.938Z,6.40
2019-04-29T05:09:05.230Z,6.40
2019-04-29T05:10:04.985Z,6.40
2019-04-29T05:11:04.544Z,6.40
2019-04-29T05:12:04.895Z,6.50
2019-04-29T05:13:04.782Z,6.50
2019-04-29T05:14:05.262Z,6.50
2019-04-29T05:15:04.733Z,6.50
2019-04-29T05:16:05.117Z,6.50
2019-04-29T05:17:04.811Z,6.50
2019-04-29T05:18:04.551Z,6.50
2019-04-29T05:19:05.171Z,6.50
2019-04-29T05:20:04.607Z,6.50
2019-04-29T05:21:04.589Z,6.60
2019-04-29T05:22:05.019Z,6.60
2019-04-29T05:23:04.566Z,6.60
2019-04-29T05:24:04.570Z,6.60
2019-04-29T05:25:05.107Z,6.60
2019-04-29T05:26:04.649Z,6.60
2019-04-29T05:27:04.569Z,6.60
2019-04-29T05:28:04.750Z,6.60
2019-04-29T05:29:05.088Z,6.60
2019-04-29T05:30:04.571Z,6.60
2019-04-29T05:31:05.054Z,6.60
2019-04-29T05:32:05.332Z,6.70
2019-04-29T05:33:04.566Z,6.70
2019-04-29T05:34:04.818Z,6.70
2019-04-29T05:35:05.357Z,6.70
2019-04-29T05:36:04.576Z,6.70
2019-04-29T05:37:04.804Z,6.70
2019-04-29T05:38:04.856Z,6.70
2019-04-29T05:39:04.911Z,6.70
2019-04-29T05:40:04.647Z,6.70
2019-04-29T05:41:04.837Z,6.70
2019-04-29T05:42:07.183Z,6.70
2019-04-29T05:43:05.121Z,6.80
2019-04-29T05:44:04.955Z,6.80
2019-04-29T05:45:04.578Z,6.80
2019-04-29T05:46:07.350Z,6.80
2019-04-29T05:47:04.593Z,6.80
2019-04-29T05:48:10.287Z,6.80
2019-04-29T05:49:07.080Z,6.80
2019-04-29T05:50:06.480Z,6.80
2019-04-29T05:51:04.598Z,6.90
2019-04-29T05:52:04.590Z,6.90
2019-04-29T05:53:04.964Z,6.90
2019-04-29T05:54:04.608Z,6.90
2019-04-29T05:55:04.596Z,6.90
2019-04-29T05:56:05.228Z,6.90
2019-04-29T05:57:04.635Z,6.90
2019-04-29T05:58:05.187Z,6.90
2019-04-29T05:59:08.353Z,6.90
2019-04-29T06:00:04.758Z,6.90
2019-04-29T06:01:04.582Z,7.00
2019-04-29T06:02:05.071Z,7.00
2019-04-29T06:03:05.069Z,7.00
2019-04-29T06:04:04.671Z,7.00
2019-04-29T06:05:04.852Z,7.00
2019-04-29T06:06:04.872Z,7.00
2019-04-29T06:07:05.325Z,7.10
2019-04-29T06:08:04.619Z,7.10
2019-04-29T06:09:05.116Z,7.10
2019-04-29T06:10:04.597Z,7.10
2019-04-29T06:11:05.000Z,7.10
2019-04-29T06:12:05.121Z,7.20
2019-04-29T06:13:04.693Z,7.20
2019-04-29T06:14:04.633Z,7.20
2019-04-29T06:15:04.798Z,7.30
2019-04-29T06:16:05.032Z,7.30
2019-04-29T06:17:07.672Z,7.30
2019-04-29T06:18:04.623Z,7.40
2019-04-29T06:19:06.012Z,7.40
2019-04-29T06:20:04.603Z,7.50
2019-04-29T06:21:09.065Z,7.50
2019-04-29T06:22:09.301Z,7.50
2019-04-29T06:23:04.771Z,7.60
2019-04-29T06:24:06.236Z,7.60
2019-04-29T06:25:04.616Z,7.60
2019-04-29T06:26:04.630Z,7.60
2019-04-29T06:27:04.716Z,7.70
2019-04-29T06:28:04.905Z,7.70
2019-04-29T06:29:05.943Z,7.80
2019-04-29T06:30:04.920Z,7.80
2019-04-29T06:31:04.714Z,7.80
2019-04-29T06:32:04.718Z,7.90
2019-04-29T06:33:05.073Z,7.90
2019-04-29T06:34:05.077Z,8.00
2019-04-29T06:35:05.468Z,8.10
2019-04-29T06:36:05.126Z,8.10
2019-04-29T06:37:05.224Z,8.10
2019-04-29T06:38:05.210Z,8.20
2019-04-29T06:39:05.219Z,8.30
2019-04-29T06:40:04.866Z,8.30
2019-04-29T06:41:05.429Z,8.40
2019-04-29T06:42:05.067Z,8.40
2019-04-29T06:43:04.641Z,8.50
2019-04-29T06:44:05.839Z,8.50
2019-04-29T06:45:04.884Z,8.60
2019-04-29T06:46:04.686Z,8.60
2019-04-29T06:47:08.481Z,8.60
2019-04-29T06:48:04.633Z,8.60
2019-04-29T06:49:10.276Z,8.60
2019-04-29T06:50:04.639Z,8.70
2019-04-29T06:51:04.643Z,8.70
2019-04-29T06:52:04.831Z,8.70
2019-04-29T06:53:04.672Z,8.70
2019-04-29T06:54:04.686Z,8.70
2019-04-29T06:55:04.636Z,8.70
2019-04-29T06:56:09.729Z,8.70
2019-04-29T06:57:05.144Z,8.70
2019-04-29T06:58:04.640Z,8.70
2019-04-29T06:59:07.440Z,8.70
2019-04-29T07:00:04.747Z,8.70
2019-04-29T07:01:04.655Z,8.70
2019-04-29T07:02:04.846Z,8.70
2019-04-29T07:03:05.017Z,8.70
2019-04-29T07:04:04.650Z,8.80
2019-04-29T07:05:04.949Z,8.80
2019-04-29T07:06:04.667Z,8.80
2019-04-29T07:07:04.666Z,8.80
2019-04-29T07:08:05.406Z,8.80
2019-04-29T07:09:04.651Z,8.80
2019-04-29T07:10:04.705Z,8.90
2019-04-29T07:11:04.794Z,8.90
2019-04-29T07:12:08.067Z,8.90
2019-04-29T07:13:04.899Z,8.90
2019-04-29T07:14:04.653Z,8.90
2019-04-29T07:15:07.517Z,8.90
2019-04-29T07:16:05.131Z,9.00
2019-04-29T07:17:05.512Z,9.00
2019-04-29T07:18:04.701Z,9.00
2019-04-29T07:19:05.153Z,9.00
2019-04-29T07:20:04.692Z,9.00
2019-04-29T07:21:07.422Z,9.10
2019-04-29T07:22:04.672Z,9.10
2019-04-29T07:23:05.728Z,9.10
2019-04-29T07:24:04.651Z,9.10
2019-04-29T07:25:04.669Z,9.20
2019-04-29T07:26:04.645Z,9.20
2019-04-29T07:27:05.104Z,9.20
2019-04-29T07:28:05.161Z,9.30
2019-04-29T07:29:04.666Z,9.30
2019-04-29T07:30:06.417Z,9.40
2019-04-29T07:31:05.216Z,9.40
2019-04-29T07:32:09.100Z,9.50
2019-04-29T07:33:05.565Z,9.50
2019-04-29T07:34:04.671Z,9.60
2019-04-29T07:35:05.800Z,9.60
2019-04-29T07:36:11.015Z,9.60
2019-04-29T07:37:05.129Z,9.70
2019-04-29T07:38:08.481Z,9.70
2019-04-29T07:39:04.685Z,9.70
2019-04-29T07:40:07.925Z,9.80
2019-04-29T07:41:04.815Z,9.80
2019-04-29T07:42:05.015Z,9.80
2019-04-29T07:43:07.689Z,9.90
2019-04-29T07:44:05.233Z,9.90
2019-04-29T07:45:04.694Z,10.00
2019-04-29T07:46:05.474Z,10.00
2019-04-29T07:47:04.677Z,10.00
2019-04-29T07:48:06.242Z,10.10
2019-04-29T07:49:05.756Z,10.10
2019-04-29T07:50:04.719Z,10.10
2019-04-29T07:51:05.887Z,10.20
2019-04-29T07:52:04.798Z,10.20
2019-04-29T07:53:05.110Z,10.30
2019-04-29T07:54:04.706Z,10.30
2019-04-29T07:55:04.784Z,10.30
2019-04-29T07:56:06.226Z,10.40
2019-04-29T07:57:05.180Z,10.40
2019-04-29T07:58:04.688Z,10.40
2019-04-29T07:59:04.895Z,10.50
2019-04-29T08:00:08.465Z,10.50
2019-04-29T08:01:04.837Z,10.50
2019-04-29T08:02:05.041Z,10.50
2019-04-29T08:03:09.507Z,10.50
2019-04-29T08:04:05.931Z,10.50
2019-04-29T08:05:04.933Z,10.60
2019-04-29T08:06:04.696Z,10.60
2019-04-29T08:07:04.798Z,10.60
2019-04-29T08:08:04.978Z,10.60
2019-04-29T08:09:07.820Z,10.60
2019-04-29T08:10:04.709Z,10.60
2019-04-29T08:11:05.018Z,10.60
2019-04-29T08:12:04.739Z,10.60
2019-04-29T08:13:04.790Z,10.60
2019-04-29T08:14:05.184Z,10.60
2019-04-29T08:15:07.668Z,10.60
2019-04-29T08:16:04.724Z,10.60
2019-04-29T08:17:04.807Z,10.60
2019-04-29T08:18:06.554Z,10.60
2019-04-29T08:19:05.057Z,10.60
2019-04-29T08:20:05.115Z,10.60
2019-04-29T08:21:05.251Z,10.60
2019-04-29T08:22:04.909Z,10.60
2019-04-29T08:23:05.244Z,10.60
2019-04-29T08:24:04.761Z,10.60
2019-04-29T08:25:04.830Z,10.50
2019-04-29T08:26:04.875Z,10.50
2019-04-29T08:27:05.174Z,10.50
2019-04-29T08:28:09.725Z,10.50
2019-04-29T08:29:05.351Z,10.50
2019-04-29T08:30:06.611Z,10.50
2019-04-29T08:31:05.996Z,10.40
2019-04-29T08:32:04.738Z,10.40
2019-04-29T08:33:07.464Z,10.40
2019-04-29T08:34:05.015Z,10.40
2019-04-29T08:35:05.587Z,10.30
2019-04-29T08:36:04.834Z,10.30
2019-04-29T08:37:06.083Z,10.30
2019-04-29T08:38:05.159Z,10.20
2019-04-29T08:39:08.512Z,10.20
2019-04-29T08:40:15.798Z,10.10
2019-04-29T08:41:05.170Z,10.10
2019-04-29T08:42:08.797Z,10.10
2019-04-29T08:43:09.968Z,10.10
2019-04-29T08:44:15.604Z,10.10
2019-04-29T08:45:04.763Z,10.00
2019-04-29T08:46:04.767Z,10.00
2019-04-29T08:47:05.179Z,10.00
2019-04-29T08:48:04.737Z,10.00
2019-04-29T08:49:05.949Z,10.00
2019-04-29T08:50:04.738Z,10.00
2019-04-29T08:51:04.929Z,10.00
2019-04-29T08:52:04.913Z,10.00
2019-04-29T08:53:04.748Z,10.00
2019-04-29T08:54:05.674Z,10.00
2019-04-29T08:55:05.220Z,10.00
2019-04-29T08:56:05.517Z,10.00
2019-04-29T08:57:05.026Z,10.00
2019-04-29T08:58:06.819Z,10.00
2019-04-29T08:59:05.810Z,9.90
2019-04-29T09:00:05.071Z,9.90
2019-04-29T09:01:04.829Z,9.90
2019-04-29T09:02:05.110Z,9.90
2019-04-29T09:03:04.928Z,9.90
2019-04-29T09:04:04.769Z,9.90
2019-04-29T09:05:06.664Z,9.90
2019-04-29T09:06:05.810Z,9.90
2019-04-29T09:07:12.233Z,9.80
2019-04-29T09:08:04.843Z,9.80
2019-04-29T09:09:08.704Z,9.80
2019-04-29T09:10:04.957Z,9.80
2019-04-29T09:11:07.995Z,9.80
2019-04-29T09:12:04.776Z,9.80
2019-04-29T09:13:04.790Z,9.80
2019-04-29T09:14:04.780Z,9.80
2019-04-29T09:15:04.971Z,9.80
2019-04-29T09:16:04.779Z,9.70
2019-04-29T09:17:19.391Z,9.80
2019-04-29T09:18:04.788Z,9.70
2019-04-29T09:19:04.837Z,9.70
2019-04-29T09:20:05.103Z,9.70
2019-04-29T09:21:04.774Z,9.70
2019-04-29T09:22:04.790Z,9.70
2019-04-29T09:23:07.857Z,9.60
2019-04-29T09:24:04.793Z,9.60
2019-04-29T09:25:05.077Z,9.60
2019-04-29T09:26:05.097Z,9.60
2019-04-29T09:27:09.094Z,9.60
2019-04-29T09:28:04.772Z,9.60
2019-04-29T09:29:05.523Z,9.60
2019-04-29T09:30:04.790Z,9.60
2019-04-29T09:31:05.067Z,9.60
2019-04-29T09:32:04.815Z,9.60
2019-04-29T09:33:08.633Z,9.60
2019-04-29T09:34:06.627Z,9.60
2019-04-29T09:35:04.788Z,9.60
2019-04-29T09:36:04.875Z,9.60
2019-04-29T09:37:07.214Z,9.50
2019-04-29T09:38:04.852Z,9.60
2019-04-29T09:39:05.091Z,9.50
2019-04-29T09:40:04.829Z,9.50
2019-04-29T09:41:04.955Z,9.50
2019-04-29T09:42:07.988Z,9.50
2019-04-29T09:43:15.466Z,9.50
2019-04-29T09:44:05.543Z,9.50
2019-04-29T09:45:04.813Z,9.50
2019-04-29T09:46:04.791Z,9.50
2019-04-29T09:47:08.421Z,9.50
2019-04-29T09:48:04.788Z,9.50
2019-04-29T09:49:05.082Z,9.50
2019-04-29T09:50:04.815Z,9.50
2019-04-29T09:51:16.571Z,9.50
2019-04-29T09:52:04.809Z,9.50
2019-04-29T09:53:04.881Z,9.50
2019-04-29T09:54:05.263Z,9.50
2019-04-29T09:55:05.799Z,9.50
2019-04-29T09:56:04.942Z,9.50
2019-04-29T09:57:04.859Z,9.50
2019-04-29T09:58:05.315Z,9.50
2019-04-29T09:59:04.843Z,9.40
2019-04-29T10:00:06.753Z,9.40
2019-04-29T10:01:04.811Z,9.40
2019-04-29T10:02:05.223Z,9.40
2019-04-29T10:03:04.840Z,9.40
2019-04-29T10:04:04.845Z,9.40
2019-04-29T10:05:06.615Z,9.40
2019-04-29T10:06:04.888Z,9.40
2019-04-29T10:07:04.848Z,9.40
2019-04-29T10:08:04.912Z,9.40
2019-04-29T10:09:05.064Z,9.40
2019-04-29T10:10:06.772Z,9.40
2019-04-29T10:11:04.850Z,9.40
2019-04-29T10:12:04.841Z,9.40
2019-04-29T10:13:04.829Z,9.40
2019-04-29T10:14:04.833Z,9.40
2019-04-29T10:15:05.609Z,9.30
2019-04-29T10:16:04.932Z,9.30
2019-04-29T10:17:05.057Z,9.40
2019-04-29T10:18:04.931Z,9.30
2019-04-29T10:19:05.469Z,9.30
2019-04-29T10:20:07.799Z,9.30
2019-04-29T10:21:04.831Z,9.40
2019-04-29T10:22:05.258Z,9.30
2019-04-29T10:23:04.875Z,9.30
2019-04-29T10:24:07.637Z,9.30
2019-04-29T10:25:04.975Z,9.30
2019-04-29T10:26:05.281Z,9.30
2019-04-29T10:27:07.184Z,9.30
2019-04-29T10:28:04.966Z,9.30
2019-04-29T10:29:04.836Z,9.30
2019-04-29T10:30:04.857Z,9.30
2019-04-29T10:31:04.856Z,9.30
2019-04-29T10:32:06.700Z,9.30
2019-04-29T10:33:05.226Z,9.30
2019-04-29T10:34:04.842Z,9.30
2019-04-29T10:35:08.612Z,9.30
2019-04-29T10:36:04.844Z,9.30
2019-04-29T10:37:05.045Z,9.30
2019-04-29T10:38:04.859Z,9.30
2019-04-29T10:39:04.828Z,9.30
2019-04-29T10:40:11.146Z,9.30
2019-04-29T10:41:04.848Z,9.40
2019-04-29T10:42:04.844Z,9.40
2019-04-29T10:43:04.857Z,9.40
2019-04-29T10:44:04.859Z,9.40
2019-04-29T10:45:05.226Z,9.40
2019-04-29T10:46:05.862Z,9.40
2019-04-29T10:47:04.842Z,9.40
2019-04-29T10:48:04.880Z,9.40
2019-04-29T10:49:05.276Z,9.40
2019-04-29T10:50:05.022Z,9.40
2019-04-29T10:51:04.861Z,9.40
2019-04-29T10:52:04.941Z,9.40
2019-04-29T10:53:04.853Z,9.50
2019-04-29T10:54:05.155Z,9.50
2019-04-29T10:55:05.695Z,9.50
2019-04-29T10:56:05.617Z,9.50
2019-04-29T10:57:05.249Z,9.50
2019-04-29T10:58:05.221Z,9.50
2019-04-29T10:59:09.076Z,9.50
2019-04-29T11:00:05.010Z,9.50
2019-04-29T11:01:05.035Z,9.50
2019-04-29T11:02:09.300Z,9.50
2019-04-29T11:03:05.598Z,9.60
2019-04-29T11:04:04.884Z,9.60
2019-04-29T11:05:07.802Z,9.60
2019-04-29T11:06:04.889Z,9.60
2019-04-29T11:07:13.742Z,9.50
2019-04-29T11:08:04.929Z,9.50
2019-04-29T11:09:04.876Z,9.50
2019-04-29T11:10:07.875Z,9.50
2019-04-29T11:11:04.881Z,9.50
2019-04-29T11:12:09.471Z,9.40
2019-04-29T11:13:05.091Z,9.40
2019-04-29T11:14:05.372Z,9.50
2019-04-29T11:15:04.900Z,9.40
2019-04-29T11:16:04.900Z,9.40
2019-04-29T11:17:05.029Z,9.40
2019-04-29T11:18:04.918Z,9.40
2019-04-29T11:19:05.488Z,9.40
2019-04-29T11:20:04.896Z,9.40
2019-04-29T11:21:04.889Z,9.40
2019-04-29T11:22:04.913Z,9.40
2019-04-29T11:23:04.905Z,9.40
2019-04-29T11:24:05.057Z,9.40
2019-04-29T11:25:04.877Z,9.30
2019-04-29T11:26:05.704Z,9.30
2019-04-29T11:27:11.739Z,9.30
2019-04-29T11:28:05.289Z,9.30
2019-04-29T11:29:07.447Z,9.30
2019-04-29T11:30:05.402Z,9.30
2019-04-29T11:31:04.892Z,9.30
2019-04-29T11:32:04.907Z,9.20
2019-04-29T11:33:06.217Z,9.30
2019-04-29T11:34:05.487Z,9.20
2019-04-29T11:35:04.950Z,9.20
2019-04-29T11:36:05.782Z,9.20
2019-04-29T11:37:05.214Z,9.20
2019-04-29T11:38:04.903Z,9.20
2019-04-29T11:39:04.917Z,9.20
2019-04-29T11:40:05.179Z,9.20
2019-04-29T11:41:04.887Z,9.20
2019-04-29T11:42:04.962Z,9.20
2019-04-29T11:43:04.918Z,9.20
2019-04-29T11:44:09.218Z,9.20
2019-04-29T11:45:05.059Z,9.20
2019-04-29T11:46:04.901Z,9.20
2019-04-29T11:47:04.964Z,9.20
2019-04-29T11:48:04.905Z,9.20
2019-04-29T11:49:04.922Z,9.20
2019-04-29T11:50:07.397Z,9.20
2019-04-29T11:51:04.905Z,9.20
2019-04-29T11:52:09.456Z,9.10
2019-04-29T11:53:04.913Z,9.10
2019-04-29T11:54:08.125Z,9.10
2019-04-29T11:55:05.100Z,9.10
2019-04-29T11:56:05.337Z,9.10
2019-04-29T11:57:05.819Z,9.10
2019-04-29T11:58:04.957Z,9.10
2019-04-29T11:59:04.971Z,9.10
2019-04-29T12:00:04.963Z,9.10
2019-04-29T12:01:08.240Z,9.10
2019-04-29T12:02:04.927Z,9.10
2019-04-29T12:03:04.962Z,9.10
2019-04-29T12:04:04.912Z,9.10
2019-04-29T12:05:08.528Z,9.10
2019-04-29T12:06:04.919Z,9.00
2019-04-29T12:07:05.021Z,9.00
2019-04-29T12:08:11.657Z,9.00
2019-04-29T12:09:06.652Z,9.00
2019-04-29T12:10:06.426Z,9.00
2019-04-29T12:11:06.417Z,9.00
2019-04-29T12:12:07.773Z,9.00
2019-04-29T12:13:04.946Z,9.00
2019-04-29T12:14:04.964Z,9.00
2019-04-29T12:15:04.989Z,9.00
2019-04-29T12:16:04.988Z,9.00
2019-04-29T12:17:04.927Z,9.00
2019-04-29T12:18:05.041Z,9.00
2019-04-29T12:19:04.937Z,9.00
2019-04-29T12:20:04.991Z,9.00
2019-04-29T12:21:04.954Z,9.00
2019-04-29T12:22:08.568Z,9.00
2019-04-29T12:23:04.973Z,9.00
2019-04-29T12:24:05.015Z,9.00
2019-04-29T12:25:05.004Z,9.00
2019-04-29T12:26:05.099Z,9.00
2019-04-29T12:27:05.155Z,9.00
2019-04-29T12:28:18.726Z,9.00
2019-04-29T12:29:05.010Z,9.00
2019-04-29T12:30:05.063Z,9.00
2019-04-29T12:31:05.613Z,9.00
2019-04-29T12:32:04.971Z,9.00
2019-04-29T12:33:04.956Z,9.00
2019-04-29T12:34:04.979Z,9.00
2019-04-29T12:35:04.961Z,9.00
2019-04-29T12:36:05.273Z,9.00
2019-04-29T12:37:04.965Z,9.00
2019-04-29T12:38:05.497Z,9.00
2019-04-29T12:39:04.969Z,9.00
2019-04-29T12:40:05.006Z,9.00
2019-04-29T12:41:04.975Z,9.00
2019-04-29T12:42:05.745Z,9.10
2019-04-29T12:43:04.977Z,9.10
2019-04-29T12:44:05.009Z,9.10
2019-04-29T12:45:18.455Z,9.10
2019-04-29T12:46:05.003Z,9.10
2019-04-29T12:47:04.973Z,9.20
2019-04-29T12:48:06.513Z,9.20
2019-04-29T12:49:08.162Z,9.20
2019-04-29T12:50:05.253Z,9.20
2019-04-29T12:51:05.014Z,9.20
2019-04-29T12:52:04.978Z,9.30
2019-04-29T12:53:05.087Z,9.30
2019-04-29T12:54:04.979Z,9.30
2019-04-29T12:55:19.579Z,9.30
2019-04-29T12:56:07.032Z,9.40
2019-04-29T12:57:04.972Z,9.40
2019-04-29T12:58:05.011Z,9.40
2019-04-29T12:59:06.757Z,9.40
2019-04-29T13:00:07.486Z,9.40
2019-04-29T13:01:06.010Z,9.40
2019-04-29T13:02:05.167Z,9.50
2019-04-29T13:03:05.631Z,9.50
2019-04-29T13:04:05.144Z,9.50
2019-04-29T13:05:05.172Z,9.50
2019-04-29T13:06:05.135Z,9.50
2019-04-29T13:07:06.870Z,9.50
2019-04-29T13:08:05.125Z,9.50
2019-04-29T13:09:17.106Z,9.50
2019-04-29T13:10:06.813Z,9.40
2019-04-29T13:11:05.026Z,9.50
2019-04-29T13:12:18.846Z,9.40
2019-04-29T13:13:05.014Z,9.50
2019-04-29T13:14:04.985Z,9.40
2019-04-29T13:15:07.825Z,9.40
2019-04-29T13:16:05.281Z,9.40